Time;durP1;ratioP1;P1;durP2;ratioP2;P2;SDS_P1;SDS_P2;PMS_P1;PMS_P2;Temp;Humidity;BMP_temperature;BMP_pressure;BME280_temperature;BME280_humidity;BME280_pressure;Samples;Min_cycle;Max_cycle;Signal;HPM_P1;HPM_P2
2021/11/30 00:01:34;;;;;;;32.33;24.70;;;1.50;1.00;;;;;;4973137;28;20264;-75
2021/11/30 00:04:01;;;;;;;34.23;25.87;;;1.50;1.00;;;;;;4973354;28;20253;-76
2021/11/30 00:06:29;;;;;;;28.67;24.07;;;1.50;1.00;;;;;;4973266;28;20201;-73
2021/11/30 00:09:09;;;;;;;33.33;24.03;;;1.50;1.00;;;;;;4973487;28;20210;-72
2021/11/30 00:11:37;;;;;;;27.93;22.43;;;1.40;1.00;;;;;;4972524;28;20259;-73
2021/11/30 00:14:04;;;;;;;35.53;22.80;;;1.40;1.00;;;;;;4973239;28;20206;-73
2021/11/30 00:16:31;;;;;;;29.77;23.10;;;1.30;1.00;;;;;;4972813;28;20607;-73
2021/11/30 00:18:58;;;;;;;30.47;23.47;;;1.20;1.00;;;;;;4973136;28;20592;-73
2021/11/30 00:21:25;;;;;;;31.43;22.27;;;1.20;1.00;;;;;;4972631;28;20358;-74
2021/11/30 00:23:52;;;;;;;26.93;20.47;;;1.20;1.00;;;;;;4972884;28;20283;-75
2021/11/30 00:26:19;;;;;;;28.23;21.73;;;1.20;1.00;;;;;;4972774;28;20215;-69
2021/11/30 00:28:47;;;;;;;27.77;21.27;;;1.20;1.00;;;;;;4972315;28;20256;-76
2021/11/30 00:31:14;;;;;;;32.33;21.60;;;1.30;1.00;;;;;;4973477;28;20261;-75
2021/11/30 00:33:42;;;;;;;33.97;23.50;;;1.30;1.00;;;;;;4972456;28;20214;-73
2021/11/30 00:36:08;;;;;;;27.07;19.23;;;1.40;1.00;;;;;;4972783;28;20256;-74
2021/11/30 00:38:35;;;;;;;31.63;23.00;;;1.40;1.00;;;;;;4972098;28;20298;-73
2021/11/30 00:41:02;;;;;;;28.13;19.93;;;1.40;1.00;;;;;;4972656;28;20205;-73
2021/11/30 00:43:33;;;;;;;31.00;21.70;;;1.40;1.00;;;;;;4972314;28;20206;-73
2021/11/30 00:46:11;;;;;;;33.23;22.03;;;1.40;1.00;;;;;;4972778;28;20205;-73
2021/11/30 00:48:38;;;;;;;35.37;22.23;;;1.50;1.00;;;;;;4971952;28;20611;-73
2021/11/30 00:51:09;;;;;;;25.77;21.10;;;1.60;1.00;;;;;;4972848;28;20258;-73
2021/11/30 00:53:39;;;;;;;23.90;19.73;;;1.60;1.00;;;;;;4971719;28;20590;-72
2021/11/30 00:56:07;;;;;;;23.77;17.83;;;1.50;1.00;;;;;;4972758;28;20264;-73
2021/11/30 00:58:35;;;;;;;29.50;20.37;;;1.50;1.00;;;;;;4971886;28;20229;-73
2021/11/30 01:01:04;;;;;;;29.30;18.93;;;1.40;1.00;;;;;;4971980;28;20264;-73
2021/11/30 01:03:31;;;;;;;27.13;21.27;;;1.40;1.00;;;;;;4970121;28;20221;-73
2021/11/30 01:05:58;;;;;;;31.60;20.50;;;1.40;1.00;;;;;;4972118;28;20201;-75
2021/11/30 01:08:26;;;;;;;28.23;19.27;;;1.40;1.00;;;;;;4971469;28;20209;-75
2021/11/30 01:10:53;;;;;;;33.37;20.50;;;1.40;1.00;;;;;;4972142;28;20210;-73
2021/11/30 01:13:21;;;;;;;25.53;17.13;;;1.30;1.00;;;;;;4971737;28;20205;-73
2021/11/30 01:15:48;;;;;;;28.97;18.10;;;1.30;1.00;;;;;;4972079;28;20583;-73
2021/11/30 01:18:16;;;;;;;23.90;18.97;;;1.30;1.00;;;;;;4972275;28;20756;-74
2021/11/30 01:20:43;;;;;;;24.43;19.63;;;1.30;1.00;;;;;;4971633;28;20202;-73
2021/11/30 01:23:10;;;;;;;26.33;19.00;;;1.30;1.00;;;;;;4971792;28;20269;-73
2021/11/30 01:25:37;;;;;;;27.13;19.47;;;1.30;1.00;;;;;;4971367;28;20216;-72
2021/11/30 01:28:05;;;;;;;29.93;19.67;;;1.20;1.00;;;;;;4971877;28;20268;-73
2021/11/30 01:30:33;;;;;;;25.40;19.50;;;1.10;1.00;;;;;;4971437;28;20218;-72
2021/11/30 01:33:00;;;;;;;25.40;21.23;;;1.10;1.00;;;;;;4971792;28;20209;-74
2021/11/30 01:35:28;;;;;;;29.43;21.70;;;1.10;1.00;;;;;;4971259;28;20701;-74
2021/11/30 01:37:55;;;;;;;29.30;22.53;;;1.10;1.00;;;;;;4958768;28;20329;-73
2021/11/30 01:40:24;;;;;;;35.10;23.73;;;1.10;1.00;;;;;;4970966;28;20239;-74
2021/11/30 01:42:54;;;;;;;36.37;24.80;;;1.00;1.00;;;;;;4971460;28;20213;-74
2021/11/30 01:45:30;;;;;;;29.60;21.00;;;1.00;1.00;;;;;;4971419;28;20213;-73
2021/11/30 01:50:41;;;;;;;30.17;21.30;;;0.90;1.00;;;;;;4949337;28;20224;-73
2021/11/30 01:53:08;;;;;;;31.23;23.73;;;0.90;1.00;;;;;;4971471;28;20256;-74
2021/11/30 01:55:36;;;;;;;34.73;24.80;;;0.90;1.00;;;;;;4971583;28;20242;-73
2021/11/30 01:58:04;;;;;;;32.07;22.57;;;0.90;1.00;;;;;;4971301;28;20213;-76
2021/11/30 02:00:35;;;;;;;26.87;22.77;;;0.90;1.00;;;;;;4971366;28;20245;-73
2021/11/30 02:03:05;;;;;;;33.47;23.03;;;0.80;1.00;;;;;;4971429;28;20696;-73
2021/11/30 02:05:34;;;;;;;33.07;22.80;;;0.90;1.00;;;;;;4971006;28;20221;-74
2021/11/30 02:08:03;;;;;;;30.53;24.77;;;0.80;1.00;;;;;;4971603;28;20209;-74
2021/11/30 02:10:30;;;;;;;29.73;22.07;;;0.80;1.00;;;;;;4971190;28;20272;-74
2021/11/30 02:12:57;;;;;;;29.73;22.07;;;0.80;1.00;;;;;;4971107;28;20678;-75
2021/11/30 02:15:26;;;;;;;28.10;22.90;;;0.80;1.00;;;;;;4971066;28;20205;-73
2021/11/30 02:17:54;;;;;;;33.07;23.77;;;0.80;1.00;;;;;;4971767;28;20216;-72
2021/11/30 02:20:23;;;;;;;29.83;23.63;;;0.80;1.00;;;;;;4970473;28;20717;-72
2021/11/30 02:22:53;;;;;;;30.87;22.27;;;0.90;1.00;;;;;;4971383;28;20210;-73
2021/11/30 02:25:21;;;;;;;29.57;23.13;;;0.80;1.00;;;;;;4970765;28;20262;-73
2021/11/30 02:27:49;;;;;;;28.03;22.23;;;0.80;1.00;;;;;;4971661;28;20268;-70
2021/11/30 02:30:16;;;;;;;31.60;23.97;;;0.80;1.00;;;;;;4971708;28;20263;-72
2021/11/30 02:32:43;;;;;;;29.30;22.90;;;0.80;1.00;;;;;;4971694;28;20209;-73
2021/11/30 02:35:11;;;;;;;30.80;22.50;;;0.70;1.00;;;;;;4970802;28;20689;-72
2021/11/30 02:37:44;;;;;;;34.87;24.53;;;0.70;1.00;;;;;;4971095;28;20582;-74
2021/11/30 02:40:12;;;;;;;32.03;25.27;;;0.70;1.00;;;;;;4971321;28;20252;-72
2021/11/30 02:42:39;;;;;;;34.20;24.40;;;0.60;1.00;;;;;;4970734;28;20714;-73
2021/11/30 02:45:07;;;;;;;32.53;23.30;;;0.70;1.00;;;;;;4971537;28;20225;-73
2021/11/30 02:47:34;;;;;;;35.83;24.87;;;0.70;1.00;;;;;;4970673;28;20642;-72
2021/11/30 02:50:01;;;;;;;35.83;25.00;;;0.80;1.00;;;;;;4970906;28;20277;-72
2021/11/30 02:52:29;;;;;;;34.73;23.93;;;0.80;1.00;;;;;;4971742;28;20594;-71
2021/11/30 02:54:57;;;;;;;33.40;23.90;;;0.90;1.00;;;;;;4974979;28;20217;-72
2021/11/30 02:57:25;;;;;;;35.50;24.07;;;0.80;1.00;;;;;;4974196;28;20280;-72
2021/11/30 02:59:55;;;;;;;30.47;24.90;;;0.60;1.00;;;;;;4974586;28;20237;-74
2021/11/30 03:02:23;;;;;;;36.17;26.67;;;0.60;1.00;;;;;;4974715;28;20213;-74
2021/11/30 03:04:52;;;;;;;31.27;24.07;;;0.60;1.00;;;;;;4974300;28;20205;-72
2021/11/30 03:07:23;;;;;;;40.73;27.50;;;0.60;1.00;;;;;;4974254;28;20241;-70
2021/11/30 03:09:52;;;;;;;31.83;24.53;;;0.70;1.00;;;;;;4974403;28;20256;-72
2021/11/30 03:12:20;;;;;;;40.27;26.70;;;0.60;1.00;;;;;;4974036;28;20571;-68
2021/11/30 03:14:48;;;;;;;34.20;24.77;;;0.60;1.00;;;;;;4974439;28;20269;-69
2021/11/30 03:17:16;;;;;;;31.50;23.43;;;0.60;1.00;;;;;;4974429;28;20217;-71
2021/11/30 03:19:44;;;;;;;40.10;25.57;;;0.60;1.00;;;;;;4973849;28;20233;-73
2021/11/30 03:22:11;;;;;;;34.70;27.00;;;0.60;1.00;;;;;;4973781;28;20728;-75
2021/11/30 03:24:38;;;;;;;32.33;24.57;;;0.60;1.00;;;;;;4974037;28;20209;-73
2021/11/30 03:27:05;;;;;;;33.13;23.97;;;0.50;1.00;;;;;;4973953;28;20256;-73
2021/11/30 03:29:34;;;;;;;34.77;24.10;;;0.60;1.00;;;;;;4973861;28;20213;-74
2021/11/30 03:32:07;;;;;;;36.10;25.67;;;0.60;1.00;;;;;;4973569;28;20260;-74
2021/11/30 03:34:35;;;;;;;32.10;25.10;;;0.50;1.00;;;;;;4973353;28;20209;-74
2021/11/30 03:37:03;;;;;;;34.03;24.70;;;0.50;1.00;;;;;;4973956;28;20241;-74
2021/11/30 03:39:31;;;;;;;31.47;23.20;;;0.40;1.00;;;;;;4973265;28;20725;-74
2021/11/30 03:41:59;;;;;;;30.53;25.63;;;0.40;1.00;;;;;;4973802;28;20209;-74
2021/11/30 03:44:30;;;;;;;31.30;23.73;;;0.40;1.00;;;;;;4973185;28;20257;-73
2021/11/30 03:46:59;;;;;;;36.00;28.37;;;0.50;1.00;;;;;;4973567;28;20264;-73
2021/11/30 03:49:27;;;;;;;28.03;23.53;;;0.40;1.00;;;;;;4973071;28;20273;-73
2021/11/30 03:51:54;;;;;;;33.23;23.37;;;0.40;1.00;;;;;;4973935;28;20217;-73
2021/11/30 03:54:21;;;;;;;30.50;24.50;;;0.40;1.00;;;;;;4973336;28;20272;-74
2021/11/30 03:56:49;;;;;;;28.70;22.53;;;0.40;1.00;;;;;;4973609;28;20205;-73
2021/11/30 03:59:16;;;;;;;33.23;25.83;;;0.40;1.00;;;;;;4973369;28;20245;-75
2021/11/30 04:01:44;;;;;;;33.97;25.23;;;0.30;1.00;;;;;;4973719;28;20205;-73
2021/11/30 04:04:19;;;;;;;30.60;23.70;;;0.30;1.00;;;;;;4972335;28;20209;-73
2021/11/30 04:06:46;;;;;;;35.93;26.17;;;0.30;1.00;;;;;;4973917;28;20205;-75
2021/11/30 04:09:13;;;;;;;32.00;23.60;;;0.30;1.00;;;;;;4973777;28;20209;-74
2021/11/30 04:11:40;;;;;;;32.23;25.67;;;0.30;1.00;;;;;;4972861;28;20210;-73
2021/11/30 04:14:07;;;;;;;30.43;25.13;;;0.30;1.00;;;;;;4973559;28;20686;-72
2021/11/30 04:16:34;;;;;;;33.20;26.27;;;0.30;1.00;;;;;;4972599;28;20211;-71
2021/11/30 04:19:01;;;;;;;33.47;26.33;;;0.30;1.00;;;;;;4973095;28;20260;-71
2021/11/30 04:21:30;;;;;;;36.80;24.93;;;0.40;1.00;;;;;;4972675;28;20247;-71
2021/11/30 04:23:57;;;;;;;30.70;23.37;;;0.30;1.00;;;;;;4972757;28;20260;-71
2021/11/30 04:26:24;;;;;;;36.93;25.27;;;0.30;1.00;;;;;;4972768;28;20214;-72
2021/11/30 04:28:52;;;;;;;33.73;25.13;;;0.30;1.00;;;;;;4972701;28;20838;-76
2021/11/30 04:31:19;;;;;;;32.33;24.03;;;0.30;1.00;;;;;;4972678;28;20677;-68
2021/11/30 04:33:45;;;;;;;33.07;25.77;;;0.30;1.00;;;;;;4973206;28;20284;-76
2021/11/30 04:36:12;;;;;;;33.67;24.67;;;0.20;1.00;;;;;;4972993;28;20674;-75
2021/11/30 04:38:41;;;;;;;35.07;27.00;;;0.20;1.00;;;;;;4972283;28;20693;-75
2021/11/30 04:41:08;;;;;;;43.00;28.03;;;0.20;1.00;;;;;;4973035;28;20288;-74
2021/11/30 04:43:36;;;;;;;35.00;25.20;;;0.20;1.00;;;;;;4972509;28;20264;-74
2021/11/30 04:46:08;;;;;;;33.77;23.27;;;0.20;1.00;;;;;;4972221;28;20268;-76
2021/11/30 04:48:35;;;;;;;33.70;23.23;;;0.20;1.00;;;;;;4972051;28;20274;-75
2021/11/30 04:51:03;;;;;;;32.83;22.17;;;0.20;1.00;;;;;;4972429;28;20245;-74
2021/11/30 04:53:31;;;;;;;30.37;21.30;;;0.10;1.00;;;;;;4972082;28;20268;-74
2021/11/30 04:56:01;;;;;;;27.90;21.07;;;0.10;1.00;;;;;;4972212;28;20222;-74
2021/11/30 04:58:28;;;;;;;25.60;18.07;;;0.10;1.00;;;;;;4972197;28;20205;-75
2021/11/30 05:00:57;;;;;;;27.63;17.93;;;0.10;1.00;;;;;;4972102;28;20237;-83
2021/11/30 05:03:24;;;;;;;25.27;17.70;;;0.10;1.00;;;;;;4972097;28;20216;-76
2021/11/30 05:05:51;;;;;;;25.60;18.17;;;0.20;1.00;;;;;;4971892;28;20569;-76
2021/11/30 05:08:18;;;;;;;23.47;18.20;;;0.10;1.00;;;;;;4972280;28;20677;-74
2021/11/30 05:10:45;;;;;;;26.27;17.87;;;0.10;1.00;;;;;;4970541;28;20670;-75
2021/11/30 05:13:14;;;;;;;26.53;16.53;;;0.10;1.00;;;;;;4972319;28;20209;-75
2021/11/30 05:15:41;;;;;;;24.80;17.07;;;0.00;1.00;;;;;;4971697;28;20206;-71
2021/11/30 05:18:08;;;;;;;25.07;17.20;;;0.10;1.00;;;;;;4972252;28;20268;-75
2021/11/30 05:20:35;;;;;;;28.20;16.37;;;0.20;1.00;;;;;;4971635;28;20699;-75
2021/11/30 05:23:02;;;;;;;26.70;15.87;;;0.30;1.00;;;;;;4972403;28;20205;-76
2021/11/30 05:25:34;;;;;;;23.67;17.27;;;0.40;1.00;;;;;;4971552;28;20597;-71
2021/11/30 05:28:02;;;;;;;19.43;15.57;;;0.30;1.00;;;;;;4972088;28;20248;-75
2021/11/30 05:30:36;;;;;;;25.47;15.93;;;0.10;1.00;;;;;;4971156;28;20245;-75
2021/11/30 05:33:05;;;;;;;21.03;14.77;;;0.10;1.00;;;;;;4971975;28;20206;-75
2021/11/30 05:35:32;;;;;;;23.07;16.47;;;0.10;1.00;;;;;;4971472;28;20205;-77
2021/11/30 05:37:59;;;;;;;28.33;21.33;;;0.10;1.00;;;;;;4972088;28;20268;-77
2021/11/30 05:40:27;;;;;;;26.83;21.07;;;0.20;1.00;;;;;;4971086;28;20233;-75
2021/11/30 05:42:54;;;;;;;32.60;23.77;;;0.10;1.00;;;;;;4971550;28;20759;-76
2021/11/30 05:45:21;;;;;;;42.23;30.37;;;0.10;1.00;;;;;;4971912;28;20297;-75
2021/11/30 05:47:50;;;;;;;40.87;26.63;;;0.10;1.00;;;;;;4971039;28;20268;-75
2021/11/30 05:50:17;;;;;;;36.13;24.43;;;0.00;1.00;;;;;;4971904;28;20268;-77
2021/11/30 05:52:44;;;;;;;42.90;26.67;;;0.00;1.00;;;;;;4969888;28;20315;-74
2021/11/30 05:55:12;;;;;;;30.10;23.77;;;-0.10;1.00;;;;;;4962992;28;20209;-76
2021/11/30 05:57:40;;;;;;;37.70;25.27;;;-0.10;1.00;;;;;;4971027;28;20628;-76
2021/11/30 06:00:11;;;;;;;35.93;28.00;;;-0.20;1.00;;;;;;4971787;28;20265;-75
2021/11/30 06:02:52;;;;;;;41.40;30.17;;;-0.30;1.00;;;;;;4970628;28;20201;-68
2021/11/30 06:05:24;;;;;;;35.47;27.57;;;-0.40;1.00;;;;;;4971330;28;20717;-68
2021/11/30 06:07:51;;;;;;;39.97;29.50;;;-0.40;1.00;;;;;;4970863;28;20689;-73
2021/11/30 06:10:18;;;;;;;36.03;28.10;;;-0.20;1.00;;;;;;4971144;28;20268;-70
2021/11/30 06:12:46;;;;;;;34.50;26.73;;;-0.30;1.00;;;;;;4971156;28;20221;-71
2021/11/30 06:15:13;;;;;;;42.03;26.93;;;-0.30;1.00;;;;;;4971788;28;20205;-72
2021/11/30 06:17:40;;;;;;;39.80;27.00;;;-0.30;1.00;;;;;;4971128;28;20260;-71
2021/11/30 06:20:10;;;;;;;39.00;26.27;;;-0.30;1.00;;;;;;4971314;28;20229;-70
2021/11/30 06:22:40;;;;;;;37.87;27.87;;;-0.20;1.00;;;;;;4971093;28;20202;-71
2021/11/30 06:25:09;;;;;;;38.90;27.03;;;-0.10;1.00;;;;;;4971020;28;20218;-69
2021/11/30 06:27:36;;;;;;;37.43;24.77;;;-0.20;1.00;;;;;;4973277;28;20208;-71
2021/11/30 06:30:05;;;;;;;36.63;26.83;;;0.00;1.00;;;;;;4974709;28;20228;-72
2021/11/30 06:32:32;;;;;;;37.23;25.03;;;0.00;1.00;;;;;;4969044;28;20220;-72
2021/11/30 06:35:02;;;;;;;35.33;25.50;;;0.00;1.00;;;;;;4972726;28;20244;-67
2021/11/30 06:37:29;;;;;;;38.90;24.80;;;0.00;1.00;;;;;;4974920;28;20257;-67
2021/11/30 06:39:58;;;;;;;32.77;24.27;;;0.10;1.00;;;;;;4974287;28;20280;-67
2021/11/30 06:42:25;;;;;;;35.43;25.03;;;0.20;1.00;;;;;;4974704;28;20230;-71
2021/11/30 06:44:52;;;;;;;43.03;27.50;;;0.30;1.00;;;;;;4974054;28;20581;-73
2021/11/30 06:47:21;;;;;;;52.63;30.33;;;0.30;1.00;;;;;;4974836;28;20213;-67
2021/11/30 06:49:48;;;;;;;39.03;25.87;;;0.10;1.00;;;;;;4974141;28;20333;-70
2021/11/30 06:52:16;;;;;;;42.13;24.97;;;0.20;1.00;;;;;;4974465;28;20681;-67
2021/11/30 06:54:45;;;;;;;41.40;26.77;;;0.20;1.00;;;;;;4973968;28;20209;-68
2021/11/30 06:57:15;;;;;;;36.50;25.00;;;0.30;1.00;;;;;;4974617;28;20213;-66
2021/11/30 06:59:42;;;;;;;43.57;26.93;;;0.40;1.00;;;;;;4974118;28;20663;-68
2021/11/30 07:02:12;;;;;;;38.80;25.67;;;0.50;1.00;;;;;;4974235;28;20614;-68
2021/11/30 07:04:42;;;;;;;50.97;27.50;;;0.50;1.00;;;;;;4973622;28;20206;-67
2021/11/30 07:07:20;;;;;;;42.93;24.27;;;0.50;1.00;;;;;;4974685;28;20210;-67
2021/11/30 07:10:05;;;;;;;40.87;24.90;;;0.60;1.00;;;;;;4974191;28;20216;-67
2021/11/30 07:15:17;;;;;;;34.00;24.93;;;0.60;1.00;;;;;;4973115;28;20201;-67
2021/11/30 07:17:44;;;;;;;38.77;25.90;;;0.60;1.00;;;;;;4974389;28;20223;-66
2021/11/30 07:20:12;;;;;;;33.03;25.00;;;0.60;1.00;;;;;;4973859;28;22235;-65
2021/11/30 07:22:39;;;;;;;46.57;27.50;;;0.70;1.00;;;;;;4973854;28;20252;-65
2021/11/30 07:25:06;;;;;;;47.63;25.73;;;0.60;1.00;;;;;;4974057;28;20269;-66
2021/11/30 07:27:35;;;;;;;40.77;26.93;;;0.70;1.00;;;;;;4974167;28;20202;-66
2021/11/30 07:30:02;;;;;;;38.73;24.23;;;0.80;1.00;;;;;;4973636;28;20237;-66
2021/11/30 07:32:29;;;;;;;39.70;24.93;;;0.90;1.00;;;;;;4973889;28;20256;-66
2021/11/30 07:34:56;;;;;;;38.10;26.03;;;0.80;1.00;;;;;;4973116;28;20205;-66
2021/11/30 07:37:23;;;;;;;46.97;28.93;;;0.90;1.00;;;;;;4970577;28;20205;-67
2021/11/30 07:39:50;;;;;;;55.00;30.40;;;0.70;1.00;;;;;;4962882;28;20205;-69
2021/11/30 07:42:18;;;;;;;38.10;24.77;;;0.70;1.00;;;;;;4973757;28;20244;-66
2021/11/30 07:44:47;;;;;;;37.20;26.43;;;0.60;1.00;;;;;;4972843;28;20202;-66
2021/11/30 07:47:13;;;;;;;39.57;27.33;;;0.80;1.00;;;;;;4973625;28;20349;-69
2021/11/30 07:49:40;;;;;;;41.80;29.23;;;0.90;1.00;;;;;;4973053;28;20261;-67
2021/11/30 07:52:08;;;;;;;42.10;29.20;;;0.90;1.00;;;;;;4973058;28;20221;-70
2021/11/30 07:54:35;;;;;;;43.23;29.90;;;0.90;1.00;;;;;;4973105;28;20205;-69
2021/11/30 07:57:02;;;;;;;52.83;29.53;;;1.00;1.00;;;;;;4973603;28;20206;-68
2021/11/30 07:59:29;;;;;;;40.63;25.93;;;1.00;1.00;;;;;;4973495;28;20295;-67
2021/11/30 08:01:57;;;;;;;36.40;23.77;;;1.00;1.00;;;;;;4972798;28;20299;-70
2021/11/30 08:04:24;;;;;;;55.43;27.47;;;1.10;1.00;;;;;;4972260;28;20213;-68
2021/11/30 08:06:51;;;;;;;41.73;23.60;;;1.10;1.00;;;;;;4972579;28;20642;-69
2021/11/30 08:09:18;;;;;;;37.60;23.47;;;1.10;1.00;;;;;;4972292;28;20720;-68
2021/11/30 08:11:45;;;;;;;45.43;22.50;;;1.00;1.00;;;;;;4972703;28;20209;-68
2021/11/30 08:14:15;;;;;;;32.07;19.07;;;1.00;1.00;;;;;;4972271;28;20642;-67
2021/11/30 08:16:42;;;;;;;28.73;18.53;;;0.80;1.00;;;;;;4972673;28;20209;-69
2021/11/30 08:19:11;;;;;;;30.40;20.07;;;1.20;1.00;;;;;;4973178;28;20280;-71
2021/11/30 08:21:38;;;;;;;30.47;21.33;;;1.30;1.00;;;;;;4972433;28;20276;-71
2021/11/30 08:24:05;;;;;;;30.23;20.97;;;1.60;1.00;;;;;;4972616;28;20213;-70
2021/11/30 08:26:32;;;;;;;27.17;17.97;;;1.70;1.00;;;;;;4972334;28;20205;-71
2021/11/30 08:28:59;;;;;;;37.53;21.07;;;1.80;99.90;;;;;;4972222;28;20634;-71
2021/11/30 08:31:26;;;;;;;35.53;22.60;;;1.80;99.90;;;;;;4972533;28;20684;-70
2021/11/30 08:33:53;;;;;;;34.87;19.63;;;1.70;99.90;;;;;;4972348;28;20216;-71
2021/11/30 08:36:22;;;;;;;27.77;19.33;;;1.90;99.90;;;;;;4972378;28;20216;-70
2021/11/30 08:38:49;;;;;;;30.50;18.33;;;1.90;99.90;;;;;;4972773;28;20255;-69
2021/11/30 08:41:19;;;;;;;26.87;19.80;;;1.90;99.90;;;;;;4972812;28;20228;-69
2021/11/30 08:43:47;;;;;;;26.77;19.13;;;1.60;99.90;;;;;;4966925;28;20283;-70
2021/11/30 08:46:14;;;;;;;29.53;19.30;;;1.20;1.00;;;;;;4972111;28;20593;-73
2021/11/30 08:48:41;;;;;;;24.00;17.27;;;1.30;1.00;;;;;;4970912;28;20217;-71
2021/11/30 08:51:08;;;;;;;27.93;18.80;;;1.70;1.00;;;;;;4971566;28;20346;-71
2021/11/30 08:53:36;;;;;;;40.20;19.13;;;1.50;1.00;;;;;;4975419;28;20704;-70
2021/11/30 08:56:04;;;;;;;29.27;19.43;;;1.30;1.00;;;;;;4973683;28;20631;-71
2021/11/30 08:58:31;;;;;;;30.10;20.13;;;1.40;1.00;;;;;;4969544;28;20620;-70
2021/11/30 09:00:58;;;;;;;38.97;20.43;;;1.30;1.00;;;;;;4971017;28;20288;-71
2021/11/30 09:03:25;;;;;;;34.37;19.77;;;1.30;1.00;;;;;;4972127;28;20213;-70
2021/11/30 09:05:52;;;;;;;38.20;22.70;;;1.40;1.00;;;;;;4970572;28;20213;-70
2021/11/30 09:08:20;;;;;;;35.63;21.70;;;1.70;1.00;;;;;;4971758;28;20297;-71
2021/11/30 09:10:48;;;;;;;26.50;19.50;;;2.00;1.00;;;;;;4971544;28;20261;-71
2021/11/30 09:13:16;;;;;;;33.60;17.87;;;2.10;99.90;;;;;;4970736;28;20376;-70
2021/11/30 09:15:43;;;;;;;24.23;17.90;;;2.00;99.90;;;;;;4970605;28;20646;-70
2021/11/30 09:18:10;;;;;;;27.30;16.77;;;2.30;99.90;;;;;;4969702;28;20272;-72
2021/11/30 09:20:38;;;;;;;21.57;14.50;;;2.60;99.90;;;;;;4970563;28;20205;-69
2021/11/30 09:23:05;;;;;;;49.07;17.57;;;2.70;99.90;;;;;;4970854;28;20784;-71
2021/11/30 09:25:32;;;;;;;26.27;17.90;;;2.70;99.90;;;;;;4970986;28;20633;-71
2021/11/30 09:28:02;;;;;;;24.53;16.53;;;2.80;99.90;;;;;;4971624;28;20214;-71
2021/11/30 09:30:29;;;;;;;27.90;16.47;;;2.80;99.90;;;;;;4971580;28;20295;-71
2021/11/30 09:32:56;;;;;;;25.33;16.60;;;3.00;99.90;;;;;;4970784;28;20680;-71
2021/11/30 09:35:25;;;;;;;29.90;17.10;;;3.20;99.90;;;;;;4971024;28;20264;-71
2021/11/30 09:37:53;;;;;;;27.23;17.57;;;2.80;99.90;;;;;;4969468;28;20326;-71
2021/11/30 09:40:22;;;;;;;27.87;18.67;;;2.90;99.90;;;;;;4971753;28;20284;-71
2021/11/30 09:42:50;;;;;;;25.90;18.87;;;3.30;99.90;;;;;;4970522;28;20293;-71
2021/11/30 09:45:21;;;;;;;31.57;18.93;;;3.10;99.90;;;;;;4971279;28;20293;-71
2021/11/30 09:47:48;;;;;;;31.07;18.47;;;3.00;99.90;;;;;;4969476;28;20685;-71
2021/11/30 09:50:17;;;;;;;28.93;19.57;;;2.50;99.90;;;;;;4971392;28;20639;-70
2021/11/30 09:52:46;;;;;;;28.73;16.93;;;2.40;99.90;;;;;;4971055;28;20201;-70
2021/11/30 09:55:17;;;;;;;32.77;17.33;;;2.20;99.90;;;;;;4970469;28;20205;-70
2021/11/30 09:57:44;;;;;;;33.37;17.87;;;2.10;99.90;;;;;;4970551;28;20201;-70
2021/11/30 10:00:13;;;;;;;33.37;19.70;;;2.00;1.00;;;;;;4970537;28;20273;-70
2021/11/30 10:02:41;;;;;;;40.57;20.27;;;2.50;99.90;;;;;;4972513;28;20282;-74
2021/11/30 10:05:09;;;;;;;34.33;20.87;;;2.20;1.00;;;;;;4975483;28;20670;-72
2021/11/30 10:07:39;;;;;;;44.20;27.47;;;2.30;99.90;;;;;;4974942;28;20665;-71
2021/11/30 10:10:15;;;;;;;31.00;19.13;;;2.60;99.90;;;;;;4975787;28;20297;-73
2021/11/30 10:12:43;;;;;;;33.43;20.27;;;3.10;99.90;;;;;;4974382;28;20217;-70
2021/11/30 10:15:12;;;;;;;42.87;18.77;;;3.10;99.90;;;;;;4973862;28;20210;-71
2021/11/30 10:17:41;;;;;;;28.63;17.97;;;2.90;99.90;;;;;;4974069;28;20209;-71
2021/11/30 10:20:11;;;;;;;34.83;17.53;;;3.10;99.90;;;;;;4974937;28;20560;-70
2021/11/30 10:22:48;;;;;;;41.73;20.40;;;3.00;99.90;;;;;;4974616;28;20809;-70
2021/11/30 10:25:21;;;;;;;30.63;17.57;;;3.10;99.90;;;;;;4974757;28;20213;-71
2021/11/30 10:27:51;;;;;;;28.40;16.97;;;3.30;99.90;;;;;;4973834;28;20209;-70
2021/11/30 10:30:21;;;;;;;29.80;18.47;;;3.30;99.90;;;;;;4974922;28;20268;-70
2021/11/30 10:32:51;;;;;;;34.90;18.67;;;3.40;99.90;;;;;;4974046;28;20227;-71
2021/11/30 10:35:20;;;;;;;30.00;19.30;;;3.20;99.90;;;;;;4975191;28;20280;-70
2021/11/30 10:37:48;;;;;;;28.83;18.70;;;3.00;99.90;;;;;;4974366;28;20227;-70
2021/11/30 10:40:17;;;;;;;28.30;20.90;;;2.90;99.90;;;;;;4974401;28;20292;-69
2021/11/30 10:42:51;;;;;;;32.80;19.57;;;3.20;99.90;;;;;;4967356;28;20244;-70
2021/11/30 10:45:30;;;;;;;28.93;20.00;;;3.10;99.90;;;;;;4974673;28;21042;-70
2021/11/30 10:48:11;;;;;;;32.83;21.30;;;2.80;99.90;;;;;;4965351;28;20221;-71
2021/11/30 10:50:41;;;;;;;30.07;21.43;;;3.40;99.90;;;;;;4972555;28;20232;-70
2021/11/30 10:53:17;;;;;;;40.47;25.63;;;3.30;99.90;;;;;;4974908;28;20283;-70
2021/11/30 10:55:50;;;;;;;34.00;20.10;;;3.50;99.90;;;;;;4968839;28;20260;-72
2021/11/30 10:58:19;;;;;;;25.43;18.23;;;3.40;99.90;;;;;;4973799;28;20209;-72
2021/11/30 11:00:46;;;;;;;26.87;20.73;;;3.30;99.90;;;;;;4972419;28;20736;-72
2021/11/30 11:03:18;;;;;;;26.90;17.87;;;3.60;99.90;;;;;;4974207;28;20240;-72
2021/11/30 11:05:49;;;;;;;29.13;20.37;;;3.90;99.90;;;;;;4971084;28;20197;-72
2021/11/30 11:08:18;;;;;;;28.27;18.57;;;3.80;99.90;;;;;;4972559;28;20677;-72
2021/11/30 11:10:46;;;;;;;29.40;21.17;;;3.70;99.90;;;;;;4973975;28;20268;-72
2021/11/30 11:13:22;;;;;;;33.27;22.67;;;3.60;99.90;;;;;;4973982;28;20210;-72
2021/11/30 11:15:51;;;;;;;35.53;21.67;;;3.20;99.90;;;;;;4974293;28;20209;-72
2021/11/30 11:18:28;;;;;;;33.57;23.03;;;3.10;99.90;;;;;;4973798;28;20630;-72
2021/11/30 11:21:14;;;;;;;38.33;22.63;;;3.10;99.90;;;;;;4973589;28;20299;-72
2021/11/30 11:23:43;;;;;;;34.37;22.47;;;3.20;99.90;;;;;;4971183;28;20716;-72
2021/11/30 11:26:24;;;;;;;36.17;21.80;;;3.40;99.90;;;;;;4974101;28;20589;-72
2021/11/30 11:28:52;;;;;;;32.57;20.60;;;3.30;99.90;;;;;;4973844;28;20668;-72
2021/11/30 11:31:20;;;;;;;39.00;23.00;;;3.20;99.90;;;;;;4973861;28;20218;-72
2021/11/30 11:33:49;;;;;;;27.03;18.03;;;3.20;99.90;;;;;;4972405;28;20213;-72
2021/11/30 11:36:17;;;;;;;29.73;18.90;;;3.40;99.90;;;;;;4974023;28;20210;-72
2021/11/30 11:38:44;;;;;;;30.40;19.03;;;3.30;99.90;;;;;;4973462;28;20205;-72
2021/11/30 11:41:11;;;;;;;27.20;17.73;;;3.80;99.90;;;;;;4973765;28;20206;-72
2021/11/30 11:43:40;;;;;;;29.67;19.20;;;4.10;99.90;;;;;;4973166;28;20284;-72
2021/11/30 11:46:12;;;;;;;26.77;17.63;;;4.30;99.90;;;;;;4963064;28;20280;-72
2021/11/30 11:48:40;;;;;;;28.43;17.20;;;3.60;99.90;;;;;;4972507;28;20292;-72
2021/11/30 11:51:11;;;;;;;26.13;16.67;;;3.60;99.90;;;;;;4973388;28;20213;-73
2021/11/30 11:53:41;;;;;;;24.73;17.27;;;4.00;99.90;;;;;;4973335;28;20210;-72
2021/11/30 11:56:13;;;;;;;30.80;19.30;;;4.30;99.90;;;;;;4971984;28;20202;-72
2021/11/30 11:58:42;;;;;;;26.73;17.33;;;4.50;99.90;;;;;;4973348;28;20213;-72
2021/11/30 12:01:15;;;;;;;22.63;15.83;;;4.70;99.90;;;;;;4973212;28;20268;-72
2021/11/30 12:03:54;;;;;;;26.23;17.27;;;4.10;99.90;;;;;;4972042;28;20280;-72
2021/11/30 12:06:26;;;;;;;27.47;18.53;;;4.10;99.90;;;;;;4973751;28;20201;-72
2021/11/30 12:09:36;;;;;;;26.63;17.87;;;4.40;99.90;;;;;;4970107;28;20248;-72
2021/11/30 12:12:21;;;;;;;19.97;14.63;;;4.60;99.90;;;;;;4958001;28;20217;-72
2021/11/30 12:14:50;;;;;;;23.20;16.27;;;4.80;99.90;;;;;;4972315;28;20197;-72
2021/11/30 12:17:21;;;;;;;20.77;15.93;;;4.60;99.90;;;;;;4973061;28;20747;-72
2021/11/30 12:19:51;;;;;;;23.60;15.57;;;4.50;99.90;;;;;;4970758;28;20202;-72
2021/11/30 12:22:48;;;;;;;23.33;16.27;;;4.50;99.90;;;;;;4971636;28;20221;-72
2021/11/30 12:25:44;;;;;;;25.10;15.17;;;4.60;99.90;;;;;;4969913;28;20285;-72
2021/11/30 12:28:12;;;;;;;26.50;16.17;;;4.60;99.90;;;;;;4966922;28;20205;-72
2021/11/30 12:30:43;;;;;;;25.10;16.23;;;4.70;99.90;;;;;;4970771;28;20276;-73
2021/11/30 12:33:18;;;;;;;24.23;14.43;;;4.80;99.90;;;;;;4971823;28;20210;-72
2021/11/30 12:35:55;;;;;;;27.17;14.83;;;4.80;99.90;;;;;;4972279;28;20724;-72
2021/11/30 12:38:29;;;;;;;19.90;14.67;;;4.80;99.90;;;;;;4972997;28;20197;-72
2021/11/30 12:40:58;;;;;;;22.03;14.17;;;4.90;99.90;;;;;;4971445;28;20582;-72
2021/11/30 12:43:28;;;;;;;19.63;14.80;;;4.70;99.90;;;;;;4971705;28;20713;-72
2021/11/30 12:45:57;;;;;;;18.00;13.70;;;4.60;99.90;;;;;;4968574;28;20228;-72
2021/11/30 12:48:35;;;;;;;19.80;13.50;;;4.70;99.90;;;;;;4963411;28;20221;-72
2021/11/30 12:51:21;;;;;;;24.07;15.60;;;4.80;99.90;;;;;;4970327;28;20685;-73
2021/11/30 12:53:49;;;;;;;22.70;15.87;;;4.70;99.90;;;;;;4965919;28;20704;-72
2021/11/30 12:56:52;;;;;;;18.63;13.87;;;4.80;99.90;;;;;;4971184;28;20257;-72
2021/11/30 12:59:57;;;;;;;21.80;16.07;;;5.00;99.90;;;;;;4971981;28;20272;-72